Time;durP1;ratioP1;P1;durP2;ratioP2;P2;SDS_P1;SDS_P2;PMS_P1;PMS_P2;Temp;Humidity;BMP_temperature;BMP_pressure;BME280_temperature;BME280_humidity;BME280_pressure;Samples;Min_cycle;Max_cycle;Signal;HPM_P1;HPM_P2
2021/01/27 00:02:15;;;;;;;10.43;2.90;;;0.80;99.90;;;;;;1892438;76;21093;-84
2021/01/27 00:04:41;;;;;;;1.82;1.57;;;0.90;99.90;;;;;;1892590;76;21155;-84
2021/01/27 00:07:07;;;;;;;6.33;2.83;;;0.80;99.90;;;;;;1892469;76;21085;-84
2021/01/27 00:09:33;;;;;;;3.90;2.50;;;0.80;99.90;;;;;;1892425;76;21050;-84
2021/01/27 00:11:59;;;;;;;5.00;2.58;;;0.70;99.90;;;;;;1892744;76;21293;-83
2021/01/27 00:14:25;;;;;;;3.05;2.35;;;0.70;99.90;;;;;;1892982;76;21167;-82
2021/01/27 00:16:51;;;;;;;4.17;2.47;;;0.60;99.90;;;;;;1893011;76;21579;-81
2021/01/27 00:19:18;;;;;;;3.35;2.25;;;0.70;99.90;;;;;;1892952;76;21437;-83
2021/01/27 00:21:44;;;;;;;2.98;2.30;;;0.70;99.90;;;;;;1893211;76;21551;-82
2021/01/27 00:24:10;;;;;;;3.40;2.15;;;0.70;99.90;;;;;;1893901;76;21065;-84
2021/01/27 00:26:36;;;;;;;4.12;2.55;;;0.80;99.90;;;;;;1895099;76;21050;-81
2021/01/27 00:29:02;;;;;;;11.18;2.90;;;0.90;99.90;;;;;;1894992;76;21099;-82
2021/01/27 00:31:28;;;;;;;3.27;2.35;;;0.80;99.90;;;;;;1895181;75;21132;-83
2021/01/27 00:33:54;;;;;;;6.42;3.17;;;0.90;99.90;;;;;;1896117;75;21039;-83
2021/01/27 00:36:20;;;;;;;2.62;2.30;;;0.90;99.90;;;;;;1896176;76;21090;-84
2021/01/27 00:38:47;;;;;;;3.90;2.58;;;1.00;99.90;;;;;;1896241;75;21105;-82
2021/01/27 00:41:13;;;;;;;2.30;1.82;;;0.90;99.90;;;;;;1894815;76;21056;-82
2021/01/27 00:43:39;;;;;;;5.08;2.85;;;1.00;99.90;;;;;;1894396;76;21204;-82
2021/01/27 00:46:05;;;;;;;10.15;2.55;;;1.00;99.90;;;;;;1894010;76;21075;-82
2021/01/27 00:48:31;;;;;;;6.90;2.92;;;0.90;99.90;;;;;;1892694;76;21046;-82
2021/01/27 00:50:57;;;;;;;5.42;2.47;;;0.90;99.90;;;;;;1892592;76;21084;-83
2021/01/27 00:53:23;;;;;;;2.10;1.90;;;0.90;99.90;;;;;;1889569;76;21085;-83
2021/01/27 00:55:49;;;;;;;6.08;2.90;;;1.00;99.90;;;;;;1892507;76;21077;-83
2021/01/27 00:58:16;;;;;;;2.50;1.90;;;0.90;99.90;;;;;;1899493;75;21158;-83
2021/01/27 01:00:42;;;;;;;4.72;2.30;;;0.90;99.90;;;;;;1890773;76;21080;-82
2021/01/27 01:03:08;;;;;;;3.67;2.45;;;0.70;99.90;;;;;;1890476;76;21143;-82
2021/01/27 01:05:34;;;;;;;5.33;2.52;;;0.60;99.90;;;;;;1892415;76;21108;-83
2021/01/27 01:08:00;;;;;;;2.47;2.20;;;0.50;99.90;;;;;;1892589;76;21077;-83
2021/01/27 01:10:26;;;;;;;2.08;1.87;;;0.50;99.90;;;;;;1892408;76;21081;-82
2021/01/27 01:12:52;;;;;;;4.50;2.60;;;0.50;99.90;;;;;;1892635;76;21096;-83
2021/01/27 01:15:18;;;;;;;2.92;2.50;;;0.40;99.90;;;;;;1892505;76;21445;-83
2021/01/27 01:17:44;;;;;;;3.75;2.37;;;0.40;99.90;;;;;;1892528;76;21433;-81
2021/01/27 01:20:14;;;;;;;4.85;2.67;;;0.30;99.90;;;;;;1892721;76;21132;-83
2021/01/27 01:22:38;;;;;;;4.12;2.10;;;0.30;99.90;;;;;;1892159;75;21089;-83
2021/01/27 01:25:05;;;;;;;4.78;2.40;;;0.30;99.90;;;;;;1892700;76;21372;-83
2021/01/27 01:27:31;;;;;;;7.08;2.52;;;0.30;99.90;;;;;;1892626;76;21575;-82
2021/01/27 01:29:57;;;;;;;3.95;2.45;;;0.20;99.90;;;;;;1892637;76;21465;-84
2021/01/27 01:32:23;;;;;;;6.72;3.00;;;0.40;99.90;;;;;;1892692;76;21148;-83
2021/01/27 01:34:49;;;;;;;4.00;2.42;;;0.40;99.90;;;;;;1892509;76;21283;-82
2021/01/27 01:37:15;;;;;;;3.55;2.30;;;0.40;99.90;;;;;;1892522;76;21077;-83
2021/01/27 01:39:41;;;;;;;3.87;2.50;;;0.50;99.90;;;;;;1892461;76;21081;-81
2021/01/27 01:42:07;;;;;;;3.65;2.20;;;0.50;99.90;;;;;;1892394;76;21046;-82
2021/01/27 01:44:33;;;;;;;4.72;2.08;;;0.60;99.90;;;;;;1892545;76;21046;-82
2021/01/27 01:47:00;;;;;;;3.25;2.02;;;0.50;99.90;;;;;;1892532;76;21291;-83
2021/01/27 01:49:26;;;;;;;2.72;2.33;;;0.50;99.90;;;;;;1892647;76;21150;-82
2021/01/27 01:51:52;;;;;;;2.60;2.17;;;0.50;99.90;;;;;;1892535;76;21151;-84
2021/01/27 01:54:18;;;;;;;3.72;2.40;;;0.50;99.90;;;;;;1892555;76;21085;-84
2021/01/27 01:56:44;;;;;;;5.62;2.70;;;0.60;99.90;;;;;;1892584;76;21078;-83
2021/01/27 01:59:10;;;;;;;5.30;2.75;;;0.60;99.90;;;;;;1892446;76;21489;-82
2021/01/27 02:01:37;;;;;;;4.90;2.77;;;0.60;99.90;;;;;;1892485;76;21422;-83
2021/01/27 02:04:04;;;;;;;3.77;2.05;;;0.60;99.90;;;;;;1892493;76;21123;-82
2021/01/27 02:06:30;;;;;;;2.77;2.17;;;0.60;99.90;;;;;;1892589;76;21186;-81
2021/01/27 02:08:56;;;;;;;2.77;2.00;;;0.50;99.90;;;;;;1892385;76;21069;-81
2021/01/27 02:11:22;;;;;;;5.83;2.70;;;0.40;99.90;;;;;;1892543;76;21159;-82
2021/01/27 02:13:48;;;;;;;3.95;2.58;;;0.50;99.90;;;;;;1892462;76;21411;-82
2021/01/27 02:16:14;;;;;;;3.85;2.85;;;0.50;99.90;;;;;;1892596;76;21492;-81
2021/01/27 02:18:40;;;;;;;3.45;3.15;;;0.40;99.90;;;;;;1870141;76;21485;-83
2021/01/27 02:21:06;;;;;;;4.03;3.05;;;0.30;99.90;;;;;;1892480;76;21014;-81
2021/01/27 02:23:33;;;;;;;4.35;2.85;;;0.40;99.90;;;;;;1892587;76;21038;-83
2021/01/27 02:25:59;;;;;;;5.03;3.25;;;0.30;99.90;;;;;;1892425;76;21338;-81
2021/01/27 02:28:25;;;;;;;4.30;2.90;;;0.10;99.90;;;;;;1895156;76;21049;-81
2021/01/27 02:30:51;;;;;;;4.55;2.75;;;0.20;99.90;;;;;;1893357;76;21110;-82
2021/01/27 02:33:17;;;;;;;3.12;2.62;;;0.20;99.90;;;;;;1892463;76;21060;-81
2021/01/27 02:35:43;;;;;;;3.75;2.80;;;0.10;99.90;;;;;;1892629;76;21073;-83
2021/01/27 02:38:10;;;;;;;5.30;2.60;;;0.10;99.90;;;;;;1892495;76;21488;-83
2021/01/27 02:40:36;;;;;;;5.58;3.37;;;0.20;99.90;;;;;;1892588;76;21180;-82
2021/01/27 02:43:02;;;;;;;4.78;2.92;;;0.10;99.90;;;;;;1892589;76;21143;-83
2021/01/27 02:45:28;;;;;;;8.05;3.22;;;0.10;99.90;;;;;;1892753;76;21073;-81
2021/01/27 02:47:57;;;;;;;3.95;3.05;;;-0.10;99.90;;;;;;1893100;76;21042;-82
2021/01/27 02:50:23;;;;;;;6.97;3.52;;;-0.20;99.90;;;;;;1893031;76;21188;-82
2021/01/27 02:52:49;;;;;;;4.55;3.27;;;-0.10;99.90;;;;;;1893027;76;21082;-82
2021/01/27 02:55:15;;;;;;;6.00;3.20;;;-0.10;99.90;;;;;;1893062;76;21073;-82
2021/01/27 02:57:41;;;;;;;6.42;3.42;;;-0.10;99.90;;;;;;1893010;76;21073;-82
2021/01/27 03:00:08;;;;;;;2.90;2.60;;;-0.20;99.90;;;;;;1893019;76;21146;-82
2021/01/27 03:02:34;;;;;;;4.47;2.87;;;-0.20;99.90;;;;;;1893029;76;21042;-81
2021/01/27 03:05:00;;;;;;;5.10;3.33;;;-0.20;99.90;;;;;;1893038;76;21186;-82
2021/01/27 03:07:26;;;;;;;7.22;2.95;;;-0.20;99.90;;;;;;1893080;76;21147;-83
2021/01/27 03:09:52;;;;;;;6.22;3.02;;;-0.20;99.90;;;;;;1893087;76;21143;-82
2021/01/27 03:12:18;;;;;;;5.42;3.47;;;-0.20;99.90;;;;;;1893060;76;21049;-83
2021/01/27 03:14:44;;;;;;;4.85;3.10;;;-0.20;99.90;;;;;;1893160;76;21061;-83
2021/01/27 03:17:10;;;;;;;4.10;3.22;;;-0.20;99.90;;;;;;1893004;76;21077;-82
2021/01/27 03:19:39;;;;;;;3.00;2.25;;;-0.30;99.90;;;;;;1893035;76;21085;-82
2021/01/27 03:22:04;;;;;;;4.47;3.10;;;-0.30;99.90;;;;;;1892774;76;21094;-82
2021/01/27 03:24:30;;;;;;;3.87;3.10;;;-0.30;99.90;;;;;;1893001;76;21145;-81
2021/01/27 03:26:58;;;;;;;4.90;3.12;;;-0.30;99.90;;;;;;1893001;76;21069;-83
2021/01/27 03:29:24;;;;;;;4.05;2.70;;;-0.30;99.90;;;;;;1892904;76;21512;-82
2021/01/27 03:31:50;;;;;;;5.58;2.90;;;-0.20;99.90;;;;;;1893054;76;21517;-81
2021/01/27 03:34:16;;;;;;;7.12;3.30;;;-0.20;99.90;;;;;;1892894;76;21489;-81
2021/01/27 03:36:43;;;;;;;4.17;3.02;;;-0.20;99.90;;;;;;1893118;76;21077;-81
2021/01/27 03:39:11;;;;;;;4.03;2.52;;;-0.20;99.90;;;;;;1892929;76;21241;-83
2021/01/27 03:41:37;;;;;;;9.03;2.80;;;-0.10;99.90;;;;;;1893052;75;21042;-83
2021/01/27 03:44:04;;;;;;;2.83;2.50;;;-0.20;99.90;;;;;;1894888;75;21089;-82
2021/01/27 03:46:30;;;;;;;4.33;2.77;;;-0.10;99.90;;;;;;1895078;75;21161;-83
2021/01/27 03:48:56;;;;;;;3.00;2.50;;;-0.10;99.90;;;;;;1889136;76;21093;-83
2021/01/27 03:51:22;;;;;;;3.50;2.55;;;-0.10;99.90;;;;;;1893023;76;21045;-83
2021/01/27 03:53:48;;;;;;;9.48;3.42;;;-0.20;99.90;;;;;;1903510;75;21136;-83
2021/01/27 03:56:14;;;;;;;4.70;2.62;;;-0.20;99.90;;;;;;1892995;76;21085;-82
2021/01/27 03:58:40;;;;;;;7.95;2.65;;;-0.10;99.90;;;;;;1893018;76;21097;-81
2021/01/27 04:01:06;;;;;;;4.20;2.52;;;-0.20;99.90;;;;;;1893033;76;21054;-83
2021/01/27 04:03:32;;;;;;;4.15;2.72;;;-0.10;99.90;;;;;;1893035;76;21097;-83
2021/01/27 04:05:59;;;;;;;6.58;3.02;;;-0.10;99.90;;;;;;1892975;76;21520;-83
2021/01/27 04:08:25;;;;;;;3.00;2.50;;;-0.20;99.90;;;;;;1893049;76;21515;-82
2021/01/27 04:10:51;;;;;;;2.95;2.47;;;-0.20;99.90;;;;;;1892985;76;21505;-82
2021/01/27 04:13:17;;;;;;;2.95;2.58;;;-0.30;99.90;;;;;;1892973;76;21430;-82
2021/01/27 04:15:43;;;;;;;6.10;2.87;;;-0.30;99.90;;;;;;1893001;76;21163;-80
2021/01/27 04:18:09;;;;;;;2.75;2.30;;;-0.10;99.90;;;;;;1893048;76;21163;-82
2021/01/27 04:20:35;;;;;;;3.10;2.30;;;-0.20;99.90;;;;;;1892899;76;21110;-82
2021/01/27 04:23:01;;;;;;;4.58;2.90;;;-0.20;99.90;;;;;;1893087;76;21085;-82
2021/01/27 04:25:28;;;;;;;4.28;2.80;;;-0.20;99.90;;;;;;1892898;76;21083;-81
2021/01/27 04:27:54;;;;;;;5.60;2.80;;;-0.20;99.90;;;;;;1893119;76;21167;-81
2021/01/27 04:30:20;;;;;;;6.50;3.17;;;-0.20;99.90;;;;;;1893240;76;21128;-82
2021/01/27 04:32:46;;;;;;;7.12;2.85;;;-0.20;99.90;;;;;;1893246;76;21082;-81
2021/01/27 04:35:12;;;;;;;5.72;2.87;;;-0.10;99.90;;;;;;1893147;76;21047;-83
2021/01/27 04:37:38;;;;;;;5.95;3.37;;;-0.20;99.90;;;;;;1893182;76;21081;-83
2021/01/27 04:40:04;;;;;;;7.28;4.08;;;-0.20;99.90;;;;;;1893175;76;21081;-82
2021/01/27 04:42:30;;;;;;;8.85;3.60;;;-0.30;99.90;;;;;;1892871;76;21116;-83
2021/01/27 04:44:57;;;;;;;7.05;3.60;;;-0.20;99.90;;;;;;1893051;76;21167;-82
2021/01/27 04:47:23;;;;;;;7.58;3.75;;;-0.20;99.90;;;;;;1893000;76;21158;-82
2021/01/27 04:49:50;;;;;;;4.08;3.05;;;-0.20;99.90;;;;;;1892954;76;21089;-83
2021/01/27 04:52:16;;;;;;;5.67;3.80;;;-0.10;99.90;;;;;;1892944;76;21062;-81
2021/01/27 04:54:42;;;;;;;4.15;3.20;;;-0.10;99.90;;;;;;1892978;76;21076;-83
2021/01/27 04:57:08;;;;;;;6.45;3.35;;;-0.10;99.90;;;;;;1892978;76;21155;-82
2021/01/27 04:59:34;;;;;;;5.85;3.40;;;-0.10;99.90;;;;;;1893102;76;21077;-82
2021/01/27 05:02:00;;;;;;;7.45;3.05;;;-0.10;99.90;;;;;;1894493;76;21198;-82
2021/01/27 05:04:27;;;;;;;4.45;3.33;;;-0.10;99.90;;;;;;1894166;76;21014;-83
2021/01/27 05:06:53;;;;;;;5.47;3.70;;;-0.10;99.90;;;;;;1893113;76;21092;-81
2021/01/27 05:09:19;;;;;;;6.78;4.15;;;-0.10;99.90;;;;;;1893107;76;21085;-82
2021/01/27 05:11:45;;;;;;;7.60;3.80;;;-0.20;99.90;;;;;;1893055;76;21089;-82
2021/01/27 05:14:11;;;;;;;5.33;3.75;;;-0.10;99.90;;;;;;1893318;76;21082;-83
2021/01/27 05:16:37;;;;;;;16.57;4.87;;;-0.10;99.90;;;;;;1893252;76;21050;-81
2021/01/27 05:19:03;;;;;;;8.35;3.85;;;-0.10;99.90;;;;;;1893215;76;21085;-83
2021/01/27 05:21:29;;;;;;;10.30;4.50;;;-0.20;99.90;;;;;;1892995;76;21081;-82
2021/01/27 05:23:56;;;;;;;11.15;4.28;;;-0.20;99.90;;;;;;1893295;76;21061;-82
2021/01/27 05:26:22;;;;;;;7.17;4.15;;;-0.10;99.90;;;;;;1892953;76;21058;-83
2021/01/27 05:28:48;;;;;;;12.60;4.00;;;-0.10;99.90;;;;;;1893114;76;21170;-83
2021/01/27 05:31:14;;;;;;;8.60;3.45;;;-0.20;99.90;;;;;;1892897;76;21170;-83
2021/01/27 05:33:40;;;;;;;9.58;4.05;;;-0.10;99.90;;;;;;1893030;76;21151;-82
2021/01/27 05:36:06;;;;;;;6.87;4.12;;;-0.10;99.90;;;;;;1893072;76;21520;-81
2021/01/27 05:38:32;;;;;;;4.65;3.45;;;-0.10;99.90;;;;;;1893094;76;21519;-82
2021/01/27 05:40:58;;;;;;;7.42;3.22;;;-0.10;99.90;;;;;;1893077;76;21516;-82
2021/01/27 05:43:25;;;;;;;9.33;3.37;;;-0.10;99.90;;;;;;1893154;76;21513;-82
2021/01/27 05:45:51;;;;;;;4.35;3.00;;;-0.10;99.90;;;;;;1893168;76;21187;-82
2021/01/27 05:48:17;;;;;;;5.47;3.67;;;0.00;99.90;;;;;;1893101;76;21050;-82
2021/01/27 05:50:43;;;;;;;9.13;3.75;;;0.00;99.90;;;;;;1893059;76;21077;-83
2021/01/27 05:53:09;;;;;;;5.15;3.50;;;0.00;99.90;;;;;;1893099;76;21154;-81
2021/01/27 05:55:35;;;;;;;3.87;3.12;;;0.00;99.90;;;;;;1893079;76;21089;-82
2021/01/27 05:58:02;;;;;;;5.42;3.30;;;0.00;99.90;;;;;;1893178;76;21239;-79
2021/01/27 06:00:28;;;;;;;6.12;3.35;;;0.10;99.90;;;;;;1892964;76;21084;-82
2021/01/27 06:02:54;;;;;;;6.83;3.37;;;0.10;99.90;;;;;;1893181;76;21085;-83
2021/01/27 06:05:20;;;;;;;5.22;3.62;;;0.10;99.90;;;;;;1892969;76;21120;-82
2021/01/27 06:07:46;;;;;;;5.03;3.47;;;0.10;99.90;;;;;;1893175;76;21085;-82
2021/01/27 06:10:12;;;;;;;6.85;4.10;;;0.10;99.90;;;;;;1893205;76;21046;-84
2021/01/27 06:12:38;;;;;;;8.85;3.10;;;0.10;99.90;;;;;;1893213;76;21162;-84
2021/01/27 06:15:04;;;;;;;4.70;3.80;;;0.20;99.90;;;;;;1893252;76;21158;-81
2021/01/27 06:17:31;;;;;;;4.25;3.35;;;0.20;99.90;;;;;;1893029;76;21132;-82
2021/01/27 06:19:57;;;;;;;8.10;3.80;;;0.20;99.90;;;;;;1895192;76;21159;-81
2021/01/27 06:22:23;;;;;;;7.37;4.45;;;0.20;99.90;;;;;;1892899;76;21170;-81
2021/01/27 06:24:49;;;;;;;7.05;4.03;;;0.20;99.90;;;;;;1893049;76;21522;-81
2021/01/27 06:27:15;;;;;;;6.22;4.17;;;0.30;99.90;;;;;;1886266;76;21438;-82
2021/01/27 06:29:41;;;;;;;5.62;3.72;;;0.30;99.90;;;;;;1892965;76;21509;-81
2021/01/27 06:32:07;;;;;;;5.53;4.03;;;0.20;99.90;;;;;;1896233;75;21155;-81
2021/01/27 06:34:33;;;;;;;5.60;3.65;;;0.20;99.90;;;;;;1896083;75;21166;-81
2021/01/27 06:36:59;;;;;;;5.58;3.77;;;0.10;99.90;;;;;;1893013;76;21077;-80
2021/01/27 06:39:26;;;;;;;6.78;3.95;;;0.20;99.90;;;;;;1886270;76;21069;-78
2021/01/27 06:41:52;;;;;;;15.70;3.98;;;0.30;99.90;;;;;;1893063;76;21078;-80
2021/01/27 06:44:18;;;;;;;8.25;5.17;;;0.30;99.90;;;;;;1893066;76;21059;-80
2021/01/27 06:46:44;;;;;;;9.73;5.55;;;0.30;99.90;;;;;;1892973;76;21100;-80
2021/01/27 06:49:10;;;;;;;7.03;4.92;;;0.30;99.90;;;;;;1893113;76;21143;-82
2021/01/27 06:51:36;;;;;;;12.05;5.35;;;0.30;99.90;;;;;;1892882;76;21123;-82
2021/01/27 06:54:02;;;;;;;9.00;5.70;;;0.30;99.90;;;;;;1892956;76;21085;-83
2021/01/27 06:56:28;;;;;;;12.45;5.97;;;0.30;99.90;;;;;;1892959;76;21080;-83
2021/01/27 06:58:55;;;;;;;7.45;4.80;;;0.30;99.90;;;;;;1893128;76;21535;-83
2021/01/27 07:01:21;;;;;;;10.50;5.12;;;0.40;99.90;;;;;;1893010;76;21525;-84
2021/01/27 07:03:47;;;;;;;6.35;4.03;;;0.40;99.90;;;;;;1893040;76;21501;-81
2021/01/27 07:06:13;;;;;;;8.90;4.22;;;0.50;99.90;;;;;;1892871;76;21142;-82
2021/01/27 07:08:39;;;;;;;10.98;4.28;;;0.50;99.90;;;;;;1893021;76;21089;-84
2021/01/27 07:11:05;;;;;;;5.72;3.77;;;0.40;99.90;;;;;;1892789;76;21077;-83
2021/01/27 07:13:31;;;;;;;6.45;4.03;;;0.30;99.90;;;;;;1893006;76;21187;-83
2021/01/27 07:15:57;;;;;;;19.15;4.67;;;0.30;99.90;;;;;;1892796;76;21143;-82
2021/01/27 07:18:23;;;;;;;8.00;4.10;;;0.40;99.90;;;;;;1892841;76;21038;-82
2021/01/27 07:20:50;;;;;;;5.85;3.72;;;0.50;99.90;;;;;;1892909;76;21069;-80
2021/01/27 07:23:16;;;;;;;8.05;3.87;;;0.50;99.90;;;;;;1893279;76;21148;-82
2021/01/27 07:25:42;;;;;;;9.68;4.10;;;0.40;99.90;;;;;;1893115;76;21073;-83
2021/01/27 07:28:08;;;;;;;6.50;4.47;;;0.50;99.90;;;;;;1893097;76;21081;-82
2021/01/27 07:30:34;;;;;;;9.40;4.35;;;0.60;99.90;;;;;;1892829;76;21085;-82
2021/01/27 07:33:00;;;;;;;5.80;3.98;;;0.50;99.90;;;;;;1893235;76;21074;-82
2021/01/27 07:35:26;;;;;;;5.47;3.90;;;0.60;99.90;;;;;;1895093;75;21498;-82
2021/01/27 07:37:52;;;;;;;6.25;4.40;;;0.70;99.90;;;;;;1892902;76;21471;-83
2021/01/27 07:40:19;;;;;;;5.10;4.10;;;0.60;99.90;;;;;;1893004;76;21069;-82
2021/01/27 07:42:45;;;;;;;4.53;3.67;;;0.60;99.90;;;;;;1892857;76;21069;-83
2021/01/27 07:45:11;;;;;;;14.35;4.33;;;0.70;99.90;;;;;;1892922;76;21120;-81
2021/01/27 07:47:39;;;;;;;8.03;5.10;;;0.80;99.90;;;;;;1892890;76;21069;-83
2021/01/27 07:50:05;;;;;;;9.53;4.60;;;0.80;99.90;;;;;;1893002;76;21449;-81
2021/01/27 07:52:31;;;;;;;6.12;3.27;;;0.80;99.90;;;;;;1892824;76;21114;-82
2021/01/27 07:54:57;;;;;;;5.87;3.72;;;0.80;99.90;;;;;;1893082;76;21065;-83
2021/01/27 07:57:23;;;;;;;5.67;2.98;;;0.90;99.90;;;;;;1892905;76;21069;-82
2021/01/27 07:59:50;;;;;;;5.90;4.00;;;0.90;99.90;;;;;;1893088;76;21077;-82
2021/01/27 08:02:16;;;;;;;4.28;3.40;;;0.90;99.90;;;;;;1892912;76;21151;-83
2021/01/27 08:04:42;;;;;;;8.18;4.10;;;0.90;99.90;;;;;;1893140;76;21538;-85
2021/01/27 08:07:08;;;;;;;3.95;3.00;;;0.90;99.90;;;;;;1893198;76;21437;-85
2021/01/27 08:09:34;;;;;;;5.53;3.67;;;1.10;99.90;;;;;;1893231;76;21135;-83
2021/01/27 08:12:01;;;;;;;3.92;2.92;;;1.10;99.90;;;;;;1893110;76;21121;-85
2021/01/27 08:14:27;;;;;;;8.05;2.65;;;1.20;99.90;;;;;;1893060;76;21070;-84
2021/01/27 08:16:54;;;;;;;2.67;2.37;;;1.10;99.90;;;;;;1893127;76;21038;-84
2021/01/27 08:19:20;;;;;;;14.20;2.17;;;1.10;99.90;;;;;;1882928;76;21105;-86
2021/01/27 08:21:47;;;;;;;4.12;2.40;;;1.10;99.90;;;;;;1893339;75;21110;-83
2021/01/27 08:24:13;;;;;;;2.47;1.80;;;1.10;99.90;;;;;;1895922;75;21077;-82
2021/01/27 08:26:39;;;;;;;3.37;2.05;;;1.10;99.90;;;;;;1892967;76;21163;-82
2021/01/27 08:29:05;;;;;;;4.47;1.90;;;1.10;99.90;;;;;;1893060;75;21073;-81
2021/01/27 08:31:31;;;;;;;2.98;1.85;;;1.20;99.90;;;;;;1892837;76;21127;-82
2021/01/27 08:33:57;;;;;;;4.47;2.33;;;1.20;99.90;;;;;;1893129;76;21077;-80
2021/01/27 08:36:23;;;;;;;3.62;2.58;;;1.20;99.90;;;;;;1885401;76;21147;-81
2021/01/27 08:38:49;;;;;;;5.08;2.90;;;1.20;99.90;;;;;;1892978;76;21073;-81
2021/01/27 08:41:16;;;;;;;3.70;2.60;;;1.00;99.90;;;;;;1892980;76;21074;-82
2021/01/27 08:43:42;;;;;;;5.53;2.95;;;1.00;99.90;;;;;;1893043;76;21042;-81
2021/01/27 08:46:08;;;;;;;4.53;3.10;;;1.00;99.90;;;;;;1893156;76;21146;-83
2021/01/27 08:48:34;;;;;;;4.30;3.15;;;0.90;99.90;;;;;;1893006;76;21073;-81
2021/01/27 08:51:00;;;;;;;6.47;3.40;;;1.00;99.90;;;;;;1892924;76;21081;-82
2021/01/27 08:53:26;;;;;;;9.38;5.72;;;0.90;99.90;;;;;;1893194;76;21066;-82
2021/01/27 08:55:52;;;;;;;6.00;3.77;;;0.90;99.90;;;;;;1893000;76;21072;-81
2021/01/27 08:58:19;;;;;;;6.17;3.72;;;1.00;99.90;;;;;;1893178;76;21073;-81
2021/01/27 09:00:45;;;;;;;4.55;3.08;;;1.00;99.90;;;;;;1893030;76;21077;-82
2021/01/27 09:03:11;;;;;;;6.12;4.12;;;1.10;99.90;;;;;;1893025;76;21112;-81
2021/01/27 09:05:37;;;;;;;10.03;3.10;;;0.90;99.90;;;;;;1893161;76;21461;-81
2021/01/27 09:08:09;;;;;;;4.80;3.30;;;0.90;99.90;;;;;;1892709;76;21458;-83
2021/01/27 09:10:55;;;;;;;;;;;;;;;;;;;;;
2021/01/27 09:15:55;;;;;;;3.77;2.37;;;0.70;99.90;;;;;;1820651;77;21097;-83
2021/01/27 09:21:36;;;;;;;;;;;;;;;;;;;;;
2021/01/27 09:23:38;;;;;;;6.95;2.58;;;0.90;99.90;;;;;;1820555;77;21066;-84
2021/01/27 09:34:04;;;;;;;;;;;;;;;;;;;;;
2021/01/27 09:36:36;;;;;;;5.08;2.87;;;1.00;99.90;;;;;;1783241;76;21209;-84
2021/01/27 09:39:01;;;;;;;4.37;2.77;;;0.90;99.90;;;;;;1849381;75;21112;-82
2021/01/27 09:41:31;;;;;;;8.48;2.95;;;0.90;99.90;;;;;;1871358;75;21560;-82
2021/01/27 09:44:03;;;;;;;3.12;2.77;;;1.00;99.90;;;;;;1893736;76;21480;-87
2021/01/27 09:46:26;;;;;;;3.62;2.45;;;1.00;99.90;;;;;;1892249;75;21144;-89
2021/01/27 09:49:09;;;;;;;3.83;2.90;;;1.10;99.90;;;;;;1893833;76;21464;-91
2021/01/27 09:54:16;;;;;;;3.62;2.58;;;1.20;99.90;;;;;;1893366;76;21120;-87
2021/01/27 09:56:42;;;;;;;3.40;2.67;;;1.10;99.90;;;;;;1893530;76;21101;-88
2021/01/27 09:59:11;;;;;;;6.30;2.65;;;1.10;99.90;;;;;;1894007;76;21073;-87
2021/01/27 10:01:36;;;;;;;5.20;2.40;;;1.10;99.90;;;;;;1893156;75;21426;-89
2021/01/27 10:04:02;;;;;;;4.90;2.37;;;1.00;99.90;;;;;;1893319;76;21068;-86
2021/01/27 10:06:28;;;;;;;2.45;2.25;;;1.00;99.90;;;;;;1896852;75;21073;-80
2021/01/27 10:08:54;;;;;;;2.55;2.00;;;1.10;99.90;;;;;;1893237;76;21041;-86
2021/01/27 10:11:20;;;;;;;5.90;3.10;;;1.10;99.90;;;;;;1908088;75;21068;-88
2021/01/27 10:13:47;;;;;;;2.98;2.58;;;1.10;99.90;;;;;;1897783;75;21280;-80
2021/01/27 10:16:13;;;;;;;5.62;2.90;;;1.10;99.90;;;;;;1897467;75;21068;-82
2021/01/27 10:18:43;;;;;;;4.45;2.92;;;1.10;99.90;;;;;;1883051;76;21147;-84
2021/01/27 10:21:07;;;;;;;7.62;2.47;;;1.20;99.90;;;;;;1891361;76;21069;-85
2021/01/27 10:23:33;;;;;;;6.70;3.00;;;1.00;99.90;;;;;;1893918;76;21033;-88
2021/01/27 10:26:00;;;;;;;2.65;2.45;;;1.00;99.90;;;;;;1893666;76;21118;-80
2021/01/27 10:28:27;;;;;;;6.03;3.65;;;1.10;99.90;;;;;;1893071;75;21542;-86
2021/01/27 10:30:54;;;;;;;6.95;2.98;;;1.20;99.90;;;;;;1892946;76;21126;-83
2021/01/27 10:33:20;;;;;;;5.30;2.95;;;1.20;99.90;;;;;;1893097;76;21142;-83
2021/01/27 10:35:46;;;;;;;6.22;3.08;;;1.30;99.90;;;;;;1893149;76;21072;-81
2021/01/27 10:38:14;;;;;;;5.10;2.85;;;1.40;99.90;;;;;;1893145;76;21139;-79
2021/01/27 10:41:15;;;;;;;8.78;2.77;;;1.30;99.90;;;;;;1899947;74;21096;-80
2021/01/27 10:43:16;;;;;;;5.20;2.72;;;1.30;99.90;;;;;;1880339;75;21093;-81
2021/01/27 10:45:42;;;;;;;6.35;2.58;;;1.30;99.90;;;;;;1896176;75;21129;-80
2021/01/27 10:48:08;;;;;;;6.08;3.40;;;1.40;99.90;;;;;;1893266;76;21038;-81
2021/01/27 10:50:36;;;;;;;6.37;3.15;;;1.50;99.90;;;;;;1893330;76;21042;-81
2021/01/27 10:53:05;;;;;;;2.80;2.35;;;1.50;99.90;;;;;;1892994;76;21112;-81
2021/01/27 10:55:31;;;;;;;3.25;2.17;;;1.60;99.90;;;;;;1892973;76;21462;-80
2021/01/27 10:57:57;;;;;;;5.08;3.40;;;1.60;99.90;;;;;;1892948;76;21138;-81
2021/01/27 11:00:23;;;;;;;4.83;2.92;;;1.60;99.90;;;;;;1893177;76;21077;-80
2021/01/27 11:02:49;;;;;;;3.98;2.90;;;1.50;99.90;;;;;;1893146;76;21127;-81
2021/01/27 11:05:16;;;;;;;4.55;3.12;;;1.60;99.90;;;;;;1893075;76;21221;-82
2021/01/27 11:07:42;;;;;;;5.45;3.75;;;1.60;99.90;;;;;;1893049;76;21104;-81
2021/01/27 11:10:08;;;;;;;6.35;3.80;;;1.50;99.90;;;;;;1893079;76;21135;-83
2021/01/27 11:12:34;;;;;;;4.33;3.37;;;1.40;99.90;;;;;;1893917;76;21046;-81
2021/01/27 11:15:00;;;;;;;4.40;3.12;;;1.40;99.90;;;;;;1894003;76;21469;-82
2021/01/27 11:17:26;;;;;;;7.50;3.87;;;1.40;99.90;;;;;;1892990;76;21041;-80
2021/01/27 11:19:53;;;;;;;4.05;3.10;;;1.50;99.90;;;;;;1892936;76;21128;-80
2021/01/27 11:22:19;;;;;;;3.92;2.98;;;1.40;99.90;;;;;;1892704;76;21528;-81
2021/01/27 11:24:46;;;;;;;3.47;2.98;;;1.30;99.90;;;;;;1893091;76;21602;-82
2021/01/27 11:27:12;;;;;;;12.03;3.98;;;1.40;99.90;;;;;;1893069;76;21541;-82
2021/01/27 11:29:38;;;;;;;10.03;2.92;;;1.40;99.90;;;;;;1893088;76;21066;-82
2021/01/27 11:32:04;;;;;;;4.70;3.58;;;1.40;99.90;;;;;;1893605;76;21049;-80
2021/01/27 11:34:30;;;;;;;5.03;3.37;;;1.40;99.90;;;;;;1893536;76;21045;-81
2021/01/27 11:36:56;;;;;;;5.10;3.00;;;1.40;99.90;;;;;;1893353;76;21081;-80
2021/01/27 11:39:22;;;;;;;5.15;3.42;;;1.40;99.90;;;;;;1893194;76;21206;-81
2021/01/27 11:41:48;;;;;;;4.45;2.90;;;1.50;99.90;;;;;;1893166;76;21077;-83
2021/01/27 11:44:15;;;;;;;3.92;2.80;;;1.60;99.90;;;;;;1893013;76;21076;-82
2021/01/27 11:46:43;;;;;;;3.45;2.55;;;1.50;99.90;;;;;;1893011;76;21073;-82
2021/01/27 11:49:08;;;;;;;5.30;2.98;;;1.70;99.90;;;;;;1892890;76;21081;-79
2021/01/27 11:51:35;;;;;;;3.75;2.90;;;1.80;99.90;;;;;;1892980;76;21046;-79
2021/01/27 11:54:01;;;;;;;5.78;3.20;;;1.70;99.90;;;;;;1892992;76;21068;-78
2021/01/27 11:56:27;;;;;;;3.17;2.30;;;1.70;99.90;;;;;;1892987;76;21159;-79
2021/01/27 11:58:53;;;;;;;3.15;2.50;;;1.90;99.90;;;;;;1892978;76;21073;-79
2021/01/27 12:01:19;;;;;;;4.47;3.25;;;1.80;99.90;;;;;;1893264;76;21143;-83
2021/01/27 12:03:45;;;;;;;5.72;3.52;;;1.70;99.90;;;;;;1893301;76;21073;-85
2021/01/27 12:06:11;;;;;;;2.30;1.98;;;1.80;99.90;;;;;;1893209;76;21139;-86
2021/01/27 12:08:37;;;;;;;4.25;2.22;;;1.70;99.90;;;;;;1893313;76;21042;-89
2021/01/27 12:11:05;;;;;;;5.78;2.65;;;1.70;99.90;;;;;;1893072;76;21018;-84
2021/01/27 12:13:31;;;;;;;4.35;2.85;;;1.80;99.90;;;;;;1893397;76;21085;-86
2021/01/27 12:15:57;;;;;;;2.95;2.17;;;1.80;99.90;;;;;;1893580;76;21073;-84
2021/01/27 12:18:23;;;;;;;4.12;2.58;;;1.80;99.90;;;;;;1893424;76;21163;-86
2021/01/27 12:20:49;;;;;;;5.42;2.35;;;1.80;99.90;;;;;;1893975;76;21115;-86
2021/01/27 12:23:17;;;;;;;2.37;2.08;;;2.00;99.90;;;;;;1894120;76;21531;-82
2021/01/27 12:25:43;;;;;;;3.25;1.82;;;2.10;99.90;;;;;;1893715;76;21132;-86
2021/01/27 12:28:15;;;;;;;3.80;2.05;;;2.00;99.90;;;;;;1894433;76;21042;-87
2021/01/27 12:30:41;;;;;;;2.90;1.87;;;1.90;99.90;;;;;;1893655;76;21034;-83
2021/01/27 12:33:09;;;;;;;2.60;2.05;;;1.90;99.90;;;;;;1893327;76;21072;-86
2021/01/27 12:35:36;;;;;;;1.95;1.82;;;1.70;99.90;;;;;;1893413;76;21139;-85
2021/01/27 12:38:02;;;;;;;1.60;1.50;;;1.60;99.90;;;;;;1893393;76;21152;-85
2021/01/27 12:40:29;;;;;;;1.37;1.27;;;1.80;99.90;;;;;;1893376;76;21046;-84
2021/01/27 12:42:55;;;;;;;1.95;1.52;;;1.80;99.90;;;;;;1896080;75;21150;-85
2021/01/27 12:45:21;;;;;;;1.47;1.37;;;1.70;99.90;;;;;;1894376;76;21148;-85
2021/01/27 12:47:47;;;;;;;4.47;1.65;;;2.00;99.90;;;;;;1900522;75;21567;-84
2021/01/27 12:50:13;;;;;;;2.50;1.52;;;2.00;99.90;;;;;;1896631;75;21559;-85
2021/01/27 12:52:39;;;;;;;5.28;1.40;;;2.00;99.90;;;;;;1892944;76;21446;-85
2021/01/27 12:55:09;;;;;;;1.20;1.10;;;2.20;99.90;;;;;;1891481;76;21088;-83
2021/01/27 12:57:33;;;;;;;1.45;1.35;;;2.20;99.90;;;;;;1892163;75;21236;-85
2021/01/27 13:00:01;;;;;;;2.40;1.55;;;2.40;99.90;;;;;;1892842;76;21536;-84
2021/01/27 13:02:27;;;;;;;2.90;1.82;;;2.60;99.90;;;;;;1892892;76;21158;-85
2021/01/27 13:04:53;;;;;;;3.30;1.75;;;2.70;99.90;;;;;;1893143;76;21124;-83
2021/01/27 13:07:20;;;;;;;4.67;1.70;;;3.00;99.90;;;;;;1893129;76;21163;-83
2021/01/27 13:09:46;;;;;;;2.42;1.62;;;3.10;99.90;;;;;;1893367;76;21089;-85